Time;durP1;ratioP1;P1;durP2;ratioP2;P2;SDS_P1;SDS_P2;PMS_P1;PMS_P2;Temp;Humidity;BMP_temperature;BMP_pressure;BME280_temperature;BME280_humidity;BME280_pressure;Samples;Min_cycle;Max_cycle;Signal;HPM_P1;HPM_P2
2022/09/16 00:01:01;;;;;;;3.30;2.57;;;15.20;99.90;;;;;;5011422;28;20835;-49
2022/09/16 00:03:28;;;;;;;4.37;3.03;;;15.20;99.90;;;;;;5012355;28;20447;-50
2022/09/16 00:05:55;;;;;;;3.17;2.77;;;15.20;99.90;;;;;;5012225;28;20457;-49
2022/09/16 00:08:22;;;;;;;3.97;2.77;;;14.80;99.90;;;;;;5011477;28;20857;-49
2022/09/16 00:10:50;;;;;;;4.90;3.20;;;14.90;99.90;;;;;;5011225;28;20482;-49
2022/09/16 00:13:17;;;;;;;4.00;2.90;;;14.70;99.90;;;;;;5011812;28;20544;-49
2022/09/16 00:15:44;;;;;;;3.10;2.57;;;14.60;99.90;;;;;;5012201;28;20451;-49
2022/09/16 00:18:13;;;;;;;4.20;3.10;;;14.70;99.90;;;;;;5011632;28;20498;-49
2022/09/16 00:20:44;;;;;;;3.27;2.97;;;14.80;99.90;;;;;;5011338;28;20442;-48
2022/09/16 00:23:12;;;;;;;3.50;2.43;;;15.00;99.90;;;;;;5011748;28;20435;-50
2022/09/16 00:25:39;;;;;;;3.80;2.93;;;14.90;99.90;;;;;;5011541;28;20455;-49
2022/09/16 00:28:05;;;;;;;3.27;2.90;;;14.90;99.90;;;;;;5011868;28;20844;-48
2022/09/16 00:30:32;;;;;;;3.93;2.53;;;14.90;99.90;;;;;;5011248;28;20491;-49
2022/09/16 00:32:59;;;;;;;5.27;2.40;;;14.90;99.90;;;;;;5011870;28;20891;-49
2022/09/16 00:35:28;;;;;;;3.20;2.40;;;15.00;99.90;;;;;;5010765;28;20503;-51
2022/09/16 00:37:55;;;;;;;4.70;2.23;;;15.20;99.90;;;;;;5011545;28;20586;-49
2022/09/16 00:40:22;;;;;;;3.40;2.60;;;15.30;99.90;;;;;;5010884;28;20459;-49
2022/09/16 00:42:49;;;;;;;2.90;2.60;;;15.40;99.90;;;;;;5011714;28;20844;-50
2022/09/16 00:45:18;;;;;;;2.70;2.30;;;15.40;99.90;;;;;;5011662;28;20475;-49
2022/09/16 00:47:50;;;;;;;2.40;2.10;;;15.20;99.90;;;;;;5011502;28;20899;-50
2022/09/16 00:50:21;;;;;;;2.90;2.63;;;15.30;99.90;;;;;;5010879;28;20517;-49
2022/09/16 00:52:52;;;;;;;3.23;2.60;;;15.30;99.90;;;;;;5011444;28;20510;-49
2022/09/16 00:55:23;;;;;;;3.58;2.50;;;15.30;99.90;;;;;;5011449;28;20447;-49
2022/09/16 00:57:51;;;;;;;4.70;2.60;;;15.30;99.90;;;;;;5011236;28;20706;-49
2022/09/16 01:00:18;;;;;;;3.08;2.13;;;15.40;99.90;;;;;;5010260;28;20448;-49
2022/09/16 01:02:47;;;;;;;2.57;2.20;;;15.80;99.90;;;;;;5011549;28;20207;-48
2022/09/16 01:05:17;;;;;;;2.50;2.30;;;15.90;99.90;;;;;;5011304;28;20509;-49
2022/09/16 01:07:46;;;;;;;4.27;2.37;;;15.70;99.90;;;;;;5011441;28;20472;-49
2022/09/16 01:10:18;;;;;;;2.90;2.63;;;15.60;99.90;;;;;;5010532;28;20474;-49
2022/09/16 01:12:48;;;;;;;2.93;2.43;;;15.60;99.90;;;;;;5011261;28;20451;-51
2022/09/16 01:15:16;;;;;;;3.93;2.60;;;15.40;99.90;;;;;;5010842;28;21000;-49
2022/09/16 01:17:56;;;;;;;3.10;2.80;;;15.40;99.90;;;;;;5011316;28;20458;-49
2022/09/16 01:21:03;;;;;;;3.77;3.10;;;15.30;99.90;;;;;;5010613;28;20439;-49
2022/09/16 01:24:07;;;;;;;3.30;2.83;;;15.50;99.90;;;;;;5014970;28;20446;-49
2022/09/16 01:27:01;;;;;;;3.57;3.13;;;15.30;99.90;;;;;;5015090;28;20455;-51
2022/09/16 01:29:58;;;;;;;3.23;2.87;;;15.40;99.90;;;;;;5014352;28;20482;-49
2022/09/16 01:32:32;;;;;;;3.10;2.60;;;15.40;99.90;;;;;;5013231;28;20545;-49
2022/09/16 01:35:05;;;;;;;3.50;3.10;;;15.50;99.90;;;;;;5013652;28;21013;-49
2022/09/16 01:37:42;;;;;;;3.70;3.23;;;15.30;99.90;;;;;;5014504;28;20459;-49
2022/09/16 01:40:16;;;;;;;3.63;3.23;;;15.30;99.90;;;;;;5014015;28;20439;-49
2022/09/16 01:42:50;;;;;;;3.33;2.90;;;15.20;99.90;;;;;;5014660;28;20862;-50
2022/09/16 01:45:20;;;;;;;3.45;3.15;;;15.10;99.90;;;;;;5014577;28;20481;-49
2022/09/16 01:47:56;;;;;;;3.73;3.10;;;15.30;99.90;;;;;;5014476;28;20625;-49
2022/09/16 01:50:28;;;;;;;2.97;2.63;;;15.10;99.90;;;;;;5014262;28;20491;-49
2022/09/16 01:53:05;;;;;;;3.60;2.83;;;15.10;99.90;;;;;;5014801;28;20446;-49
2022/09/16 01:55:36;;;;;;;3.60;2.80;;;15.10;99.90;;;;;;5014982;28;20525;-50
2022/09/16 01:58:10;;;;;;;3.97;2.90;;;15.20;99.90;;;;;;5014355;28;20471;-49
2022/09/16 02:00:39;;;;;;;3.67;3.20;;;15.00;99.90;;;;;;5013207;28;20451;-49
2022/09/16 02:03:11;;;;;;;3.80;2.50;;;14.90;99.90;;;;;;5014531;28;20431;-50
2022/09/16 02:05:45;;;;;;;3.20;2.90;;;15.10;99.90;;;;;;5014317;28;20509;-49
2022/09/16 02:08:15;;;;;;;7.30;3.50;;;15.20;99.90;;;;;;5014305;28;20498;-49
2022/09/16 02:10:46;;;;;;;4.10;3.10;;;15.20;99.90;;;;;;5013548;28;20501;-49
2022/09/16 02:13:20;;;;;;;3.23;2.60;;;15.30;99.90;;;;;;5014167;28;20443;-49
2022/09/16 02:15:51;;;;;;;3.20;2.90;;;14.80;99.90;;;;;;5014028;28;20435;-48
2022/09/16 02:18:26;;;;;;;3.37;3.07;;;15.00;99.90;;;;;;5013953;28;20475;-47
2022/09/16 02:20:56;;;;;;;3.30;2.63;;;14.90;99.90;;;;;;5013706;28;20454;-49
2022/09/16 02:23:27;;;;;;;7.50;3.70;;;14.70;99.90;;;;;;5014237;28;20451;-49
2022/09/16 02:25:55;;;;;;;3.60;3.30;;;14.60;99.90;;;;;;5013929;28;20478;-49
2022/09/16 02:28:26;;;;;;;4.80;3.38;;;14.60;99.90;;;;;;5013704;28;20513;-49
2022/09/16 02:30:59;;;;;;;3.10;2.73;;;14.50;99.90;;;;;;5013296;28;20228;-49
2022/09/16 02:33:33;;;;;;;3.83;3.43;;;14.60;99.90;;;;;;5012467;28;20876;-49
2022/09/16 02:36:04;;;;;;;3.47;3.15;;;14.70;99.90;;;;;;5013915;28;20495;-49
2022/09/16 02:38:34;;;;;;;3.73;3.33;;;14.80;99.90;;;;;;5013763;28;20235;-49
2022/09/16 02:41:02;;;;;;;5.27;3.53;;;14.90;99.90;;;;;;5013421;28;20489;-49
2022/09/16 02:43:30;;;;;;;3.30;2.63;;;15.20;99.90;;;;;;5013733;28;20447;-49
2022/09/16 02:46:05;;;;;;;3.20;2.80;;;15.40;99.90;;;;;;5013451;28;20867;-51
2022/09/16 02:48:43;;;;;;;3.67;3.37;;;15.40;99.90;;;;;;5013534;28;20569;-49
2022/09/16 02:51:17;;;;;;;3.73;3.00;;;15.30;99.90;;;;;;5013663;28;20455;-49
2022/09/16 02:53:47;;;;;;;4.50;3.93;;;15.30;99.90;;;;;;5013520;28;20457;-49
2022/09/16 02:56:22;;;;;;;4.37;3.17;;;14.90;99.90;;;;;;5013669;28;20447;-49
2022/09/16 02:58:49;;;;;;;4.37;3.17;;;14.80;99.90;;;;;;5012019;28;20477;-49
2022/09/16 03:01:17;;;;;;;3.67;3.17;;;14.70;99.90;;;;;;5013072;28;20479;-49
2022/09/16 03:03:46;;;;;;;3.77;2.97;;;14.80;99.90;;;;;;5013247;28;20193;-49
2022/09/16 03:06:17;;;;;;;4.80;3.88;;;14.90;99.90;;;;;;5013234;28;20447;-49
2022/09/16 03:08:46;;;;;;;4.10;2.80;;;15.00;99.90;;;;;;5012459;28;20212;-49
2022/09/16 03:11:33;;;;;;;3.63;3.13;;;14.90;99.90;;;;;;5013379;28;20791;-50
2022/09/16 03:14:20;;;;;;;4.87;3.40;;;14.40;99.90;;;;;;5013113;28;20478;-49
2022/09/16 03:16:55;;;;;;;4.05;2.83;;;14.70;99.90;;;;;;5012855;28;20463;-49
2022/09/16 03:19:31;;;;;;;4.30;3.17;;;14.80;99.90;;;;;;5012416;28;20207;-49
2022/09/16 03:22:05;;;;;;;3.63;2.90;;;15.00;99.90;;;;;;5012761;28;20537;-49
2022/09/16 03:24:43;;;;;;;3.67;3.27;;;14.90;99.90;;;;;;5012840;28;20442;-49
2022/09/16 03:27:16;;;;;;;7.03;3.50;;;15.10;99.90;;;;;;5012660;28;20427;-50
2022/09/16 03:29:50;;;;;;;3.20;2.90;;;15.30;99.90;;;;;;5012275;28;20443;-49
2022/09/16 03:32:20;;;;;;;6.10;3.40;;;15.30;99.90;;;;;;5012783;28;20489;-51
2022/09/16 03:34:54;;;;;;;3.50;3.00;;;15.30;99.90;;;;;;5011605;28;20483;-50
2022/09/16 03:37:23;;;;;;;4.70;3.10;;;15.10;99.90;;;;;;5012433;28;21062;-49
2022/09/16 03:39:52;;;;;;;4.20;3.30;;;15.20;99.90;;;;;;5011854;28;20447;-50
2022/09/16 03:42:20;;;;;;;3.80;3.30;;;15.20;99.90;;;;;;5012609;28;20467;-49
2022/09/16 03:44:47;;;;;;;4.63;3.20;;;15.30;99.90;;;;;;5011763;28;20610;-50
2022/09/16 03:47:15;;;;;;;4.27;3.63;;;15.10;99.90;;;;;;5012373;28;20746;-49
2022/09/16 03:49:42;;;;;;;5.40;3.40;;;14.70;99.90;;;;;;5011718;28;20519;-49
2022/09/16 03:52:10;;;;;;;6.07;3.00;;;14.90;99.90;;;;;;5012281;28;20948;-49
2022/09/16 03:54:38;;;;;;;4.73;3.33;;;15.00;99.90;;;;;;5012344;28;20562;-49
2022/09/16 03:57:05;;;;;;;3.77;3.37;;;15.10;99.90;;;;;;5012393;28;20501;-51
2022/09/16 03:59:32;;;;;;;3.60;2.77;;;15.20;99.90;;;;;;5011055;28;20427;-49
2022/09/16 04:01:59;;;;;;;2.93;2.60;;;15.20;99.90;;;;;;5012285;28;20483;-49
2022/09/16 04:04:26;;;;;;;3.30;2.90;;;15.30;99.90;;;;;;5012099;28;20440;-50
2022/09/16 04:06:53;;;;;;;4.53;3.17;;;15.40;99.90;;;;;;5012156;28;20517;-49
2022/09/16 04:09:21;;;;;;;3.90;3.50;;;15.40;99.90;;;;;;5011597;28;20451;-49
2022/09/16 04:11:48;;;;;;;3.17;2.67;;;15.30;99.90;;;;;;5012202;28;20537;-50
2022/09/16 04:14:16;;;;;;;4.70;3.70;;;15.40;99.90;;;;;;5012168;28;20505;-49
2022/09/16 04:16:43;;;;;;;3.53;3.23;;;15.40;99.90;;;;;;5012208;28;20443;-50
2022/09/16 04:19:11;;;;;;;3.57;3.27;;;15.20;99.90;;;;;;5011242;28;20475;-49
2022/09/16 04:21:39;;;;;;;7.30;3.47;;;15.30;99.90;;;;;;5011885;28;20447;-50
2022/09/16 04:24:06;;;;;;;4.70;3.33;;;15.20;99.90;;;;;;5011836;28;20451;-50
2022/09/16 04:26:34;;;;;;;5.07;3.70;;;15.10;99.90;;;;;;5012033;28;20944;-49
2022/09/16 04:29:01;;;;;;;4.53;3.80;;;15.30;99.90;;;;;;5012227;28;20870;-50
2022/09/16 04:31:28;;;;;;;3.40;3.10;;;15.10;99.90;;;;;;5011599;28;20427;-49
2022/09/16 04:33:56;;;;;;;4.33;3.43;;;15.20;99.90;;;;;;5010062;28;20451;-49
2022/09/16 04:36:23;;;;;;;4.13;3.27;;;15.20;99.90;;;;;;5011614;28;20510;-49
2022/09/16 04:38:50;;;;;;;3.17;2.87;;;15.20;99.90;;;;;;5010747;28;20469;-49
2022/09/16 04:41:18;;;;;;;5.00;3.27;;;15.20;99.90;;;;;;5011446;28;20913;-50
2022/09/16 04:43:51;;;;;;;5.13;3.50;;;14.80;99.90;;;;;;5011539;28;20888;-49
2022/09/16 04:46:18;;;;;;;4.53;3.03;;;14.80;99.90;;;;;;5012066;28;20445;-49
2022/09/16 04:48:47;;;;;;;3.10;2.73;;;14.70;99.90;;;;;;5010855;28;20271;-49
2022/09/16 04:51:14;;;;;;;3.57;3.27;;;14.60;99.90;;;;;;5011322;28;20435;-51
2022/09/16 04:53:43;;;;;;;3.60;3.27;;;14.50;99.90;;;;;;5011379;28;20953;-49
2022/09/16 04:56:14;;;;;;;3.87;3.13;;;14.40;99.90;;;;;;5010999;28;20811;-49
2022/09/16 04:58:42;;;;;;;5.60;3.40;;;14.20;99.90;;;;;;5010196;28;20467;-51
2022/09/16 05:01:12;;;;;;;5.20;4.70;;;14.30;99.90;;;;;;5011210;28;20451;-49
2022/09/16 05:03:40;;;;;;;6.63;4.20;;;14.40;99.90;;;;;;5011014;28;20513;-50
2022/09/16 05:06:12;;;;;;;5.93;4.13;;;14.50;99.90;;;;;;5011446;28;20451;-49
2022/09/16 05:08:40;;;;;;;3.73;3.00;;;14.10;99.90;;;;;;5011106;28;20483;-51
2022/09/16 05:11:09;;;;;;;4.83;3.87;;;14.20;99.90;;;;;;5010969;28;20883;-49
2022/09/16 05:13:37;;;;;;;5.73;4.57;;;14.40;99.90;;;;;;5011144;28;20435;-49
2022/09/16 05:16:06;;;;;;;6.43;4.63;;;14.50;99.90;;;;;;5011342;28;20478;-49
2022/09/16 05:18:35;;;;;;;6.67;4.63;;;14.40;99.90;;;;;;5011148;28;20517;-49
2022/09/16 05:21:04;;;;;;;6.90;4.87;;;14.30;99.90;;;;;;5010681;28;20525;-49
2022/09/16 05:23:32;;;;;;;5.32;4.18;;;14.40;99.90;;;;;;5010910;28;20444;-49
2022/09/16 05:26:04;;;;;;;5.37;4.20;;;14.30;99.90;;;;;;5011526;28;20258;-49
2022/09/16 05:28:31;;;;;;;5.10;4.60;;;14.30;99.90;;;;;;5011013;28;20485;-49
2022/09/16 05:31:08;;;;;;;5.00;4.47;;;14.10;99.90;;;;;;5010523;28;20491;-49
2022/09/16 05:33:37;;;;;;;6.00;4.50;;;14.20;99.90;;;;;;5009325;28;20443;-49
2022/09/16 05:36:05;;;;;;;7.17;5.50;;;14.40;99.90;;;;;;5010985;28;20983;-49
2022/09/16 05:38:33;;;;;;;6.20;5.57;;;14.30;99.90;;;;;;5010722;28;20890;-49
2022/09/16 05:41:00;;;;;;;5.63;5.13;;;14.40;99.90;;;;;;5010473;28;20449;-49
2022/09/16 05:43:27;;;;;;;5.80;5.30;;;14.30;99.90;;;;;;5010954;28;20820;-49
2022/09/16 05:45:55;;;;;;;6.33;5.50;;;14.50;99.90;;;;;;5010539;28;20944;-49
2022/09/16 05:48:22;;;;;;;5.90;5.33;;;14.40;99.90;;;;;;5011163;28;20494;-52
2022/09/16 05:50:55;;;;;;;6.37;4.83;;;14.40;99.90;;;;;;5010510;28;20446;-49
2022/09/16 05:53:23;;;;;;;7.10;5.87;;;14.60;99.90;;;;;;5011071;28;20432;-49
2022/09/16 05:55:57;;;;;;;6.33;5.50;;;14.50;99.90;;;;;;5010855;28;20466;-49
2022/09/16 05:58:24;;;;;;;6.33;4.73;;;14.60;99.90;;;;;;5010434;28;20536;-48
2022/09/16 06:00:51;;;;;;;6.27;5.67;;;14.50;99.90;;;;;;5010427;28;20463;-49
2022/09/16 06:03:19;;;;;;;6.30;5.70;;;14.00;99.90;;;;;;5011166;28;20452;-50
2022/09/16 06:05:46;;;;;;;8.80;6.70;;;14.30;99.90;;;;;;5011012;28;20443;-48
2022/09/16 06:08:14;;;;;;;8.93;6.27;;;14.30;99.90;;;;;;5013343;28;20467;-48
2022/09/16 06:10:42;;;;;;;6.53;5.87;;;14.30;99.90;;;;;;5013538;28;20986;-48
2022/09/16 06:13:09;;;;;;;9.27;6.57;;;14.20;99.90;;;;;;5014297;28;20474;-48
2022/09/16 06:15:36;;;;;;;9.37;6.97;;;14.20;99.90;;;;;;5014066;28;20486;-48
2022/09/16 06:18:03;;;;;;;8.27;7.07;;;14.20;99.90;;;;;;5014344;28;20467;-48
2022/09/16 06:20:30;;;;;;;8.00;6.83;;;13.90;99.90;;;;;;5013344;28;20486;-48
2022/09/16 06:22:57;;;;;;;8.60;7.43;;;13.90;99.90;;;;;;5014309;28;20478;-48
2022/09/16 06:25:25;;;;;;;7.37;6.67;;;14.20;99.90;;;;;;5014036;28;20975;-49
2022/09/16 06:27:52;;;;;;;10.70;6.90;;;14.20;99.90;;;;;;5013839;28;20465;-50
2022/09/16 06:30:19;;;;;;;18.23;15.10;;;14.20;99.90;;;;;;5013563;28;20505;-49
2022/09/16 06:32:46;;;;;;;10.50;8.53;;;14.40;99.90;;;;;;5013879;28;20866;-48
2022/09/16 06:35:13;;;;;;;9.00;7.40;;;14.30;99.90;;;;;;5011941;28;20882;-48
2022/09/16 06:37:40;;;;;;;7.97;7.13;;;14.10;99.90;;;;;;5013728;28;20798;-48
2022/09/16 06:40:08;;;;;;;8.30;7.00;;;14.00;99.90;;;;;;5013304;28;20451;-48
2022/09/16 06:42:37;;;;;;;9.63;6.77;;;14.00;99.90;;;;;;5013668;28;20983;-49
2022/09/16 06:45:04;;;;;;;9.20;7.22;;;14.10;99.90;;;;;;5013725;28;20447;-48
2022/09/16 06:47:32;;;;;;;9.37;7.97;;;14.20;99.90;;;;;;5013692;28;20279;-50
2022/09/16 06:49:59;;;;;;;8.40;7.60;;;14.20;99.90;;;;;;5013093;28;20948;-51
2022/09/16 06:52:27;;;;;;;7.50;6.70;;;14.20;99.90;;;;;;5013565;28;20518;-49
2022/09/16 06:54:54;;;;;;;6.87;6.27;;;14.30;99.90;;;;;;5013794;28;20862;-50
2022/09/16 06:57:22;;;;;;;8.13;7.20;;;13.90;99.90;;;;;;5013357;28;20491;-48
2022/09/16 06:59:51;;;;;;;11.50;8.53;;;14.10;99.90;;;;;;5006703;28;20463;-48
2022/09/16 07:02:20;;;;;;;9.33;7.77;;;14.30;99.90;;;;;;5012763;28;20541;-49
2022/09/16 07:04:47;;;;;;;8.93;7.33;;;14.30;99.90;;;;;;5012903;28;20455;-49
2022/09/16 07:07:14;;;;;;;8.47;7.60;;;14.40;99.90;;;;;;5013380;28;20438;-49
2022/09/16 07:09:41;;;;;;;7.70;6.90;;;14.40;99.90;;;;;;5012250;28;20816;-50
2022/09/16 07:12:08;;;;;;;7.00;6.30;;;14.30;99.90;;;;;;5012614;28;20509;-49
2022/09/16 07:14:35;;;;;;;7.10;6.40;;;14.40;99.90;;;;;;5012409;28;20455;-49
2022/09/16 07:17:04;;;;;;;8.50;6.70;;;14.50;99.90;;;;;;5013094;28;20545;-50
2022/09/16 07:19:31;;;;;;;7.57;6.87;;;14.70;99.90;;;;;;5011000;28;20944;-49
2022/09/16 07:21:58;;;;;;;7.90;7.20;;;14.80;99.90;;;;;;5012525;28;20451;-49
2022/09/16 07:24:25;;;;;;;8.23;7.43;;;14.80;99.90;;;;;;5012075;28;20501;-50
2022/09/16 07:26:52;;;;;;;8.73;7.83;;;14.90;99.90;;;;;;5011925;28;20443;-50
2022/09/16 07:29:19;;;;;;;15.27;12.13;;;15.00;99.90;;;;;;5010570;28;20467;-49
2022/09/16 07:31:47;;;;;;;8.02;7.20;;;14.90;99.90;;;;;;5012571;28;20456;-51
2022/09/16 07:34:15;;;;;;;11.93;9.50;;;14.80;99.90;;;;;;5012076;28;20203;-49
2022/09/16 07:36:44;;;;;;;8.90;8.00;;;14.70;99.90;;;;;;5012542;28;20475;-50
2022/09/16 07:39:12;;;;;;;9.68;7.38;;;14.50;99.90;;;;;;5012043;28;20462;-50
2022/09/16 07:41:40;;;;;;;9.60;7.80;;;14.40;99.90;;;;;;5012901;28;20204;-52
2022/09/16 07:44:10;;;;;;;9.00;7.70;;;14.40;99.90;;;;;;5012223;28;20513;-49
2022/09/16 07:46:37;;;;;;;9.60;7.83;;;14.20;99.90;;;;;;5011277;28;20502;-49
2022/09/16 07:49:06;;;;;;;10.20;9.20;;;14.10;99.90;;;;;;5010307;28;20502;-51
2022/09/16 07:51:35;;;;;;;9.43;8.50;;;14.00;99.90;;;;;;5011084;28;20458;-51
2022/09/16 07:54:05;;;;;;;9.40;8.40;;;14.10;99.90;;;;;;5010970;28;20501;-51
2022/09/16 07:56:35;;;;;;;9.43;8.23;;;14.20;99.90;;;;;;5010525;28;21049;-50
2022/09/16 07:59:03;;;;;;;11.53;9.40;;;14.20;99.90;;;;;;5009584;28;20456;-50
2022/09/16 08:01:31;;;;;;;9.77;8.10;;;14.50;99.90;;;;;;5012219;28;20435;-49
2022/09/16 08:03:59;;;;;;;8.80;7.80;;;14.60;99.90;;;;;;5012300;28;20872;-50
2022/09/16 08:06:29;;;;;;;9.13;8.33;;;14.80;99.90;;;;;;5012359;28;20443;-50
2022/09/16 08:08:59;;;;;;;9.53;8.27;;;14.90;99.90;;;;;;5011366;28;20525;-50
2022/09/16 08:11:28;;;;;;;9.67;8.67;;;15.20;99.90;;;;;;5012136;28;20436;-50
2022/09/16 08:13:55;;;;;;;8.80;7.90;;;15.20;99.90;;;;;;5012083;28;20431;-52
2022/09/16 08:16:23;;;;;;;9.90;8.73;;;14.90;99.90;;;;;;5011974;28;20831;-50
2022/09/16 08:18:54;;;;;;;8.77;7.97;;;14.90;99.90;;;;;;5011296;28;20470;-49
2022/09/16 08:21:22;;;;;;;8.80;7.90;;;14.90;99.90;;;;;;5011574;28;20484;-50
2022/09/16 08:23:50;;;;;;;8.70;7.80;;;14.90;99.90;;;;;;5011722;28;20459;-51
2022/09/16 08:26:19;;;;;;;8.53;7.70;;;14.80;99.90;;;;;;5011930;28;20451;-50
2022/09/16 08:28:48;;;;;;;9.40;7.83;;;14.50;99.90;;;;;;5010846;28;20536;-48
2022/09/16 08:31:15;;;;;;;8.80;7.90;;;14.60;99.90;;;;;;5010990;28;20464;-50
2022/09/16 08:33:43;;;;;;;9.10;8.20;;;14.90;99.90;;;;;;5010272;28;20440;-51
2022/09/16 08:36:14;;;;;;;9.67;8.30;;;14.90;99.90;;;;;;5011783;28;20576;-50
2022/09/16 08:38:41;;;;;;;8.60;7.80;;;14.80;99.90;;;;;;5011312;28;21004;-50
2022/09/16 08:41:24;;;;;;;11.00;9.43;;;14.80;99.90;;;;;;5011666;28;20756;-52
2022/09/16 08:43:59;;;;;;;10.40;9.27;;;15.00;99.90;;;;;;5011814;28;20204;-50
2022/09/16 08:46:34;;;;;;;8.80;7.20;;;15.00;99.90;;;;;;5011798;28;20455;-50
2022/09/16 08:49:07;;;;;;;7.70;7.00;;;15.10;99.90;;;;;;5010940;28;20497;-50
2022/09/16 08:51:34;;;;;;;8.13;7.20;;;15.50;99.90;;;;;;5011645;28;20849;-50
2022/09/16 08:54:05;;;;;;;8.30;7.50;;;15.40;99.90;;;;;;5011517;28;20447;-50
2022/09/16 08:56:35;;;;;;;7.90;7.20;;;15.60;99.90;;;;;;5011350;28;20474;-50
2022/09/16 08:59:09;;;;;;;9.33;8.50;;;15.60;99.90;;;;;;5009971;28;20499;-50
2022/09/16 09:01:42;;;;;;;7.93;7.13;;;15.80;99.90;;;;;;5011542;28;20783;-50
2022/09/16 09:04:11;;;;;;;8.10;7.32;;;15.50;99.90;;;;;;5011369;28;20444;-49
2022/09/16 09:06:57;;;;;;;7.53;6.82;;;15.60;99.90;;;;;;5011609;28;20202;-52
2022/09/16 09:09:43;;;;;;;7.30;6.60;;;15.70;99.90;;;;;;5010704;28;20200;-50
2022/09/16 09:12:24;;;;;;;6.00;5.40;;;15.80;99.90;;;;;;5011526;28;20458;-50
2022/09/16 09:15:06;;;;;;;7.43;6.60;;;15.60;99.90;;;;;;5011246;28;20462;-51
2022/09/16 09:17:44;;;;;;;6.70;6.13;;;15.70;99.90;;;;;;5011141;28;20486;-50
2022/09/16 09:20:22;;;;;;;7.97;7.17;;;15.70;99.90;;;;;;5011024;28;20473;-51
2022/09/16 09:23:06;;;;;;;7.13;6.43;;;15.70;99.90;;;;;;5010633;28;20486;-51
2022/09/16 09:25:42;;;;;;;7.53;6.83;;;15.70;99.90;;;;;;5009443;28;20458;-50
2022/09/16 09:28:23;;;;;;;7.80;7.00;;;15.50;99.90;;;;;;5009186;28;20765;-49
2022/09/16 09:30:59;;;;;;;7.90;7.17;;;15.70;99.90;;;;;;5008095;28;20450;-50
2022/09/16 09:33:37;;;;;;;8.67;7.10;;;15.40;99.90;;;;;;5007076;28;20423;-52
2022/09/16 09:36:24;;;;;;;9.73;8.17;;;15.50;99.90;;;;;;5009488;28;20984;-51
2022/09/16 09:39:01;;;;;;;6.93;6.23;;;15.70;99.90;;;;;;5009813;28;20903;-50
2022/09/16 09:41:32;;;;;;;5.57;5.07;;;15.50;99.90;;;;;;5011602;28;20442;-51
2022/09/16 09:44:13;;;;;;;5.67;4.63;;;15.30;99.90;;;;;;5015064;28;20522;-50
2022/09/16 09:46:45;;;;;;;5.47;4.97;;;15.40;99.90;;;;;;5015155;28;20445;-49
2022/09/16 09:49:16;;;;;;;5.90;5.30;;;15.70;99.90;;;;;;5014551;28;20447;-51
2022/09/16 09:51:49;;;;;;;5.73;4.30;;;15.80;99.90;;;;;;5015025;28;20939;-50
2022/09/16 09:54:26;;;;;;;5.70;5.03;;;16.10;99.90;;;;;;5013401;28;20439;-50
2022/09/16 09:56:58;;;;;;;23.40;6.77;;;16.30;99.90;;;;;;5013230;28;20479;-50
2022/09/16 09:59:31;;;;;;;20.17;5.70;;;16.40;99.90;;;;;;5011695;28;20451;-50
2022/09/16 10:02:00;;;;;;;5.93;4.30;;;16.40;99.90;;;;;;5013725;28;20451;-52
2022/09/16 10:04:28;;;;;;;5.32;4.18;;;16.40;99.90;;;;;;5013925;28;20455;-50
2022/09/16 10:06:56;;;;;;;5.23;4.40;;;16.00;99.90;;;;;;5013858;28;20204;-50
2022/09/16 10:09:24;;;;;;;4.35;3.78;;;15.80;99.90;;;;;;5013518;28;20511;-50
2022/09/16 10:11:54;;;;;;;4.60;3.50;;;16.20;99.90;;;;;;5014354;28;20209;-49
2022/09/16 10:14:30;;;;;;;5.17;3.50;;;16.50;99.90;;;;;;5014543;28;20474;-50
2022/09/16 10:17:00;;;;;;;3.17;2.87;;;16.30;99.90;;;;;;5014143;28;20518;-50
2022/09/16 10:19:29;;;;;;;3.75;2.58;;;15.90;99.90;;;;;;5009977;28;20445;-50
2022/09/16 10:22:08;;;;;;;3.27;2.70;;;15.90;99.90;;;;;;5002971;28;20200;-50
2022/09/16 10:24:37;;;;;;;3.03;2.73;;;16.30;99.90;;;;;;5004412;28;20439;-51
2022/09/16 10:30:06;;;;;;;3.60;2.80;;;16.50;99.90;;;;;;5063250;22;20604;-50
2022/09/16 10:32:39;;;;;;;2.60;2.38;;;16.80;99.90;;;;;;5039264;28;20958;-50
2022/09/16 10:35:07;;;;;;;3.50;3.00;;;17.00;99.90;;;;;;5039173;28;20282;-52
2022/09/16 10:37:34;;;;;;;3.53;3.23;;;17.00;99.90;;;;;;5039656;28;20498;-50
2022/09/16 10:40:05;;;;;;;3.60;2.53;;;17.00;99.90;;;;;;5020933;28;20519;-50
2022/09/16 10:42:33;;;;;;;3.30;2.67;;;17.00;99.90;;;;;;5022701;28;20883;-50
2022/09/16 10:45:14;;;;;;;3.10;2.80;;;16.60;99.90;;;;;;5021680;28;20431;-50
2022/09/16 10:47:41;;;;;;;3.50;2.87;;;16.50;99.90;;;;;;5012509;28;20570;-51
2022/09/16 10:50:16;;;;;;;3.50;2.97;;;16.60;99.90;;;;;;5011972;28;20871;-50
2022/09/16 10:52:45;;;;;;;3.37;3.07;;;16.50;99.90;;;;;;5012788;28;20530;-50
2022/09/16 10:55:23;;;;;;;4.40;3.50;;;16.70;99.90;;;;;;5012936;28;20455;-50
2022/09/16 10:57:51;;;;;;;7.13;3.87;;;16.70;99.90;;;;;;5010948;28;20474;-49
2022/09/16 11:00:21;;;;;;;5.90;4.07;;;16.70;99.90;;;;;;5011349;28;20910;-50
2022/09/16 11:03:23;;;;;;;4.83;4.00;;;16.60;99.90;;;;;;5012621;28;20451;-50
2022/09/16 11:06:03;;;;;;;4.13;3.40;;;16.70;99.90;;;;;;5001874;28;20676;-50
2022/09/16 11:08:41;;;;;;;3.10;2.80;;;16.60;99.90;;;;;;5012325;28;20474;-52
2022/09/16 11:11:16;;;;;;;3.83;3.47;;;16.60;99.90;;;;;;5012437;28;20497;-50
2022/09/16 11:13:49;;;;;;;6.23;2.87;;;16.80;99.90;;;;;;5012810;28;20450;-50
2022/09/16 11:16:38;;;;;;;3.93;3.33;;;17.00;99.90;;;;;;5012913;28;20452;-50
2022/09/16 11:19:11;;;;;;;3.10;2.77;;;17.10;99.90;;;;;;5012167;28;20486;-50
2022/09/16 11:22:01;;;;;;;3.13;2.80;;;17.20;99.90;;;;;;5012629;28;20971;-50
2022/09/16 11:24:51;;;;;;;7.97;3.50;;;17.10;99.90;;;;;;5012663;28;20447;-50
2022/09/16 11:27:29;;;;;;;3.20;2.90;;;17.10;99.90;;;;;;5012164;28;20501;-50
2022/09/16 11:30:07;;;;;;;3.20;2.63;;;17.00;99.90;;;;;;5011514;28;20505;-50
2022/09/16 11:32:55;;;;;;;3.33;2.13;;;17.10;99.90;;;;;;5010914;28;20497;-49
2022/09/16 11:35:38;;;;;;;3.17;2.60;;;17.20;99.90;;;;;;5011123;28;20451;-51
2022/09/16 11:38:16;;;;;;;3.70;2.57;;;17.20;99.90;;;;;;5011893;28;20533;-50
2022/09/16 11:40:48;;;;;;;3.27;2.63;;;17.20;99.90;;;;;;5011572;28;20447;-50
2022/09/16 11:43:48;;;;;;;4.50;3.20;;;17.20;99.90;;;;;;5011858;28;20443;-50
2022/09/16 11:46:22;;;;;;;3.70;3.23;;;17.40;99.90;;;;;;5010574;28;20448;-50
2022/09/16 11:49:05;;;;;;;3.50;3.20;;;17.40;99.90;;;;;;5009693;28;20940;-51
2022/09/16 11:51:54;;;;;;;4.37;3.37;;;17.40;99.90;;;;;;5010347;28;20438;-50
2022/09/16 11:54:39;;;;;;;4.40;3.53;;;17.30;99.90;;;;;;5010793;28;20457;-50
2022/09/16 11:57:11;;;;;;;3.83;3.53;;;17.30;99.90;;;;;;5009693;28;20463;-49
2022/09/16 11:59:45;;;;;;;4.13;3.60;;;17.40;99.90;;;;;;5010341;28;20506;-49
2022/09/16 12:02:19;;;;;;;3.13;2.83;;;17.40;99.90;;;;;;5011759;28;20437;-50
2022/09/16 12:04:53;;;;;;;3.13;2.83;;;17.20;99.90;;;;;;5011284;28;20432;-50
2022/09/16 12:07:26;;;;;;;4.10;3.30;;;17.30;99.90;;;;;;5011931;28;20467;-51
2022/09/16 12:10:03;;;;;;;3.80;3.17;;;17.20;99.90;;;;;;5010871;28;20439;-50
2022/09/16 12:12:37;;;;;;;3.53;3.20;;;17.40;99.90;;;;;;5011371;28;20439;-50
2022/09/16 12:15:18;;;;;;;3.80;3.50;;;17.40;99.90;;;;;;5011701;28;20446;-51
2022/09/16 12:17:53;;;;;;;3.53;3.07;;;17.50;99.90;;;;;;5011406;28;20530;-50
2022/09/16 12:20:25;;;;;;;4.60;3.10;;;17.70;99.90;;;;;;5010715;28;20474;-50
2022/09/16 12:22:57;;;;;;;4.18;3.25;;;17.70;99.90;;;;;;5012154;28;20502;-50
2022/09/16 12:25:28;;;;;;;3.80;3.40;;;17.70;99.90;;;;;;5011353;28;20546;-50
2022/09/16 12:28:00;;;;;;;4.27;3.40;;;17.70;99.90;;;;;;5011177;28;20482;-50
2022/09/16 12:30:31;;;;;;;3.77;3.17;;;17.50;99.90;;;;;;5010633;28;20459;-51
2022/09/16 12:33:06;;;;;;;3.65;2.90;;;17.60;99.90;;;;;;5010497;28;20853;-50
2022/09/16 12:35:39;;;;;;;4.63;2.57;;;17.80;99.90;;;;;;5010021;28;20665;-50
2022/09/16 12:38:13;;;;;;;4.93;3.00;;;17.80;99.90;;;;;;5011112;28;20515;-52
2022/09/16 12:40:52;;;;;;;3.70;2.90;;;17.80;99.90;;;;;;5010699;28;20953;-50
2022/09/16 12:43:48;;;;;;;3.40;3.10;;;17.90;99.90;;;;;;5011549;28;20431;-50
2022/09/16 12:46:41;;;;;;;3.87;3.53;;;17.90;99.90;;;;;;5011195;28;20509;-50
2022/09/16 12:49:40;;;;;;;3.28;2.88;;;18.00;99.90;;;;;;5010497;28;21086;-50
2022/09/16 12:52:26;;;;;;;2.97;2.67;;;18.00;99.90;;;;;;5008719;28;20266;-50
2022/09/16 12:55:21;;;;;;;3.23;2.93;;;18.10;99.90;;;;;;5010942;28;20459;-50
2022/09/16 12:58:24;;;;;;;3.10;2.77;;;18.10;99.90;;;;;;5010840;28;20530;-50
2022/09/16 13:01:01;;;;;;;4.33;3.20;;;18.10;99.90;;;;;;4974984;28;20524;-50
2022/09/16 13:03:31;;;;;;;3.83;3.10;;;18.10;99.90;;;;;;5011429;28;20439;-50
2022/09/16 13:06:01;;;;;;;3.13;2.83;;;18.10;99.90;;;;;;5010887;28;20916;-50
2022/09/16 13:08:32;;;;;;;3.30;2.88;;;18.20;99.90;;;;;;5010689;28;20263;-49
2022/09/16 13:11:02;;;;;;;4.13;3.40;;;18.20;99.90;;;;;;5010397;28;20727;-50
2022/09/16 13:13:36;;;;;;;4.00;3.10;;;18.20;99.90;;;;;;5010979;28;20430;-50